sensor_id;sensor_type;location;lat;lon;timestamp;P1;durP1;ratioP1;P2;durP2;ratioP2
80315;SDS011;71201;47.064;15.448;2023-12-14T00:01:39;24.08;;;13.32;;
80315;SDS011;71201;47.064;15.448;2023-12-14T00:04:05;22.85;;;12.88;;
80315;SDS011;71201;47.064;15.448;2023-12-14T00:06:30;20.47;;;12.73;;
80315;SDS011;71201;47.064;15.448;2023-12-14T00:08:55;19.17;;;12.97;;
80315;SDS011;71201;47.064;15.448;2023-12-14T00:11:21;25.13;;;15.47;;
80315;SDS011;71201;47.064;15.448;2023-12-14T00:13:46;21.60;;;14.37;;
80315;SDS011;71201;47.064;15.448;2023-12-14T00:16:11;24.77;;;14.37;;
80315;SDS011;71201;47.064;15.448;2023-12-14T00:18:37;17.87;;;11.40;;
80315;SDS011;71201;47.064;15.448;2023-12-14T00:21:02;21.80;;;12.95;;
80315;SDS011;71201;47.064;15.448;2023-12-14T00:23:27;23.98;;;13.18;;
80315;SDS011;71201;47.064;15.448;2023-12-14T00:25:53;20.70;;;12.80;;
80315;SDS011;71201;47.064;15.448;2023-12-14T00:28:18;21.90;;;13.50;;
80315;SDS011;71201;47.064;15.448;2023-12-14T00:30:43;21.10;;;11.60;;
80315;SDS011;71201;47.064;15.448;2023-12-14T00:33:09;19.48;;;12.25;;
80315;SDS011;71201;47.064;15.448;2023-12-14T00:35:34;18.98;;;10.75;;
80315;SDS011;71201;47.064;15.448;2023-12-14T00:37:59;19.27;;;11.37;;
80315;SDS011;71201;47.064;15.448;2023-12-14T00:40:25;17.67;;;11.17;;
80315;SDS011;71201;47.064;15.448;2023-12-14T00:42:50;19.20;;;10.60;;
80315;SDS011;71201;47.064;15.448;2023-12-14T00:45:15;19.02;;;10.98;;
80315;SDS011;71201;47.064;15.448;2023-12-14T00:47:40;17.27;;;10.63;;
80315;SDS011;71201;47.064;15.448;2023-12-14T00:50:06;17.70;;;10.37;;
80315;SDS011;71201;47.064;15.448;2023-12-14T00:52:31;19.38;;;10.32;;
80315;SDS011;71201;47.064;15.448;2023-12-14T00:54:56;18.70;;;10.00;;
80315;SDS011;71201;47.064;15.448;2023-12-14T00:57:22;18.40;;;10.00;;
80315;SDS011;71201;47.064;15.448;2023-12-14T00:59:47;18.37;;;8.90;;
80315;SDS011;71201;47.064;15.448;2023-12-14T01:02:12;17.00;;;11.03;;
80315;SDS011;71201;47.064;15.448;2023-12-14T01:04:38;18.67;;;10.07;;
80315;SDS011;71201;47.064;15.448;2023-12-14T01:07:03;15.80;;;10.18;;
80315;SDS011;71201;47.064;15.448;2023-12-14T01:09:28;16.58;;;10.00;;
80315;SDS011;71201;47.064;15.448;2023-12-14T01:11:54;15.50;;;9.90;;
80315;SDS011;71201;47.064;15.448;2023-12-14T01:14:19;14.00;;;9.00;;
80315;SDS011;71201;47.064;15.448;2023-12-14T01:16:44;13.30;;;8.47;;
80315;SDS011;71201;47.064;15.448;2023-12-14T01:19:09;15.27;;;9.10;;
80315;SDS011;71201;47.064;15.448;2023-12-14T01:21:35;14.63;;;8.53;;
80315;SDS011;71201;47.064;15.448;2023-12-14T01:24:00;15.27;;;8.77;;
80315;SDS011;71201;47.064;15.448;2023-12-14T01:26:26;14.15;;;8.35;;
80315;SDS011;71201;47.064;15.448;2023-12-14T01:28:51;14.55;;;8.73;;
80315;SDS011;71201;47.064;15.448;2023-12-14T01:31:16;11.33;;;6.83;;
80315;SDS011;71201;47.064;15.448;2023-12-14T01:33:42;15.17;;;7.90;;
80315;SDS011;71201;47.064;15.448;2023-12-14T01:36:07;12.87;;;7.97;;
80315;SDS011;71201;47.064;15.448;2023-12-14T01:38:32;16.77;;;8.95;;
80315;SDS011;71201;47.064;15.448;2023-12-14T01:40:58;13.57;;;7.53;;
80315;SDS011;71201;47.064;15.448;2023-12-14T01:43:24;11.23;;;7.47;;
80315;SDS011;71201;47.064;15.448;2023-12-14T01:45:49;13.05;;;8.30;;
80315;SDS011;71201;47.064;15.448;2023-12-14T01:48:14;11.87;;;7.43;;
80315;SDS011;71201;47.064;15.448;2023-12-14T01:50:40;12.73;;;8.23;;
80315;SDS011;71201;47.064;15.448;2023-12-14T01:53:05;14.20;;;7.97;;
80315;SDS011;71201;47.064;15.448;2023-12-14T01:55:30;13.40;;;8.50;;
80315;SDS011;71201;47.064;15.448;2023-12-14T01:57:56;13.00;;;7.95;;
80315;SDS011;71201;47.064;15.448;2023-12-14T02:00:37;10.55;;;7.05;;
80315;SDS011;71201;47.064;15.448;2023-12-14T02:03:04;13.32;;;6.90;;
80315;SDS011;71201;47.064;15.448;2023-12-14T02:05:29;12.25;;;7.90;;
80315;SDS011;71201;47.064;15.448;2023-12-14T02:07:55;13.50;;;7.00;;
80315;SDS011;71201;47.064;15.448;2023-12-14T02:10:20;11.37;;;6.33;;
80315;SDS011;71201;47.064;15.448;2023-12-14T02:12:45;12.00;;;6.77;;
80315;SDS011;71201;47.064;15.448;2023-12-14T02:15:11;9.95;;;6.72;;
80315;SDS011;71201;47.064;15.448;2023-12-14T02:17:36;11.13;;;7.22;;
80315;SDS011;71201;47.064;15.448;2023-12-14T02:20:01;12.97;;;6.73;;
80315;SDS011;71201;47.064;15.448;2023-12-14T02:22:27;9.73;;;5.75;;
80315;SDS011;71201;47.064;15.448;2023-12-14T02:24:52;13.33;;;6.33;;
80315;SDS011;71201;47.064;15.448;2023-12-14T02:27:17;11.37;;;5.77;;
80315;SDS011;71201;47.064;15.448;2023-12-14T02:29:42;9.30;;;5.47;;
80315;SDS011;71201;47.064;15.448;2023-12-14T02:32:08;11.33;;;6.20;;
80315;SDS011;71201;47.064;15.448;2023-12-14T02:34:33;10.47;;;5.93;;
80315;SDS011;71201;47.064;15.448;2023-12-14T02:36:58;10.67;;;5.77;;
80315;SDS011;71201;47.064;15.448;2023-12-14T02:39:23;11.90;;;5.97;;
80315;SDS011;71201;47.064;15.448;2023-12-14T02:41:49;9.60;;;5.23;;
80315;SDS011;71201;47.064;15.448;2023-12-14T02:44:14;10.63;;;5.10;;
80315;SDS011;71201;47.064;15.448;2023-12-14T02:46:39;11.27;;;5.53;;
80315;SDS011;71201;47.064;15.448;2023-12-14T02:49:04;10.10;;;5.47;;
80315;SDS011;71201;47.064;15.448;2023-12-14T02:51:30;9.03;;;5.07;;
80315;SDS011;71201;47.064;15.448;2023-12-14T02:53:55;9.30;;;4.70;;
80315;SDS011;71201;47.064;15.448;2023-12-14T02:56:22;10.40;;;5.78;;
80315;SDS011;71201;47.064;15.448;2023-12-14T02:58:47;8.90;;;5.18;;
80315;SDS011;71201;47.064;15.448;2023-12-14T03:01:18;8.07;;;4.72;;
80315;SDS011;71201;47.064;15.448;2023-12-14T03:03:43;7.53;;;4.15;;
80315;SDS011;71201;47.064;15.448;2023-12-14T03:06:08;10.23;;;5.30;;
80315;SDS011;71201;47.064;15.448;2023-12-14T03:08:33;9.00;;;4.20;;
80315;SDS011;71201;47.064;15.448;2023-12-14T03:10:59;11.57;;;5.23;;
80315;SDS011;71201;47.064;15.448;2023-12-14T03:13:25;10.35;;;4.80;;
80315;SDS011;71201;47.064;15.448;2023-12-14T03:15:50;9.53;;;4.67;;
80315;SDS011;71201;47.064;15.448;2023-12-14T03:18:15;8.10;;;4.23;;
80315;SDS011;71201;47.064;15.448;2023-12-14T03:20:40;7.23;;;4.60;;
80315;SDS011;71201;47.064;15.448;2023-12-14T03:23:06;9.65;;;4.68;;
80315;SDS011;71201;47.064;15.448;2023-12-14T03:25:31;9.47;;;4.90;;
80315;SDS011;71201;47.064;15.448;2023-12-14T03:27:56;10.90;;;7.13;;
80315;SDS011;71201;47.064;15.448;2023-12-14T03:30:22;13.30;;;8.27;;
80315;SDS011;71201;47.064;15.448;2023-12-14T03:32:47;15.55;;;9.65;;
80315;SDS011;71201;47.064;15.448;2023-12-14T03:35:12;16.53;;;10.00;;
80315;SDS011;71201;47.064;15.448;2023-12-14T03:37:37;17.33;;;11.40;;
80315;SDS011;71201;47.064;15.448;2023-12-14T03:40:03;15.10;;;10.23;;
80315;SDS011;71201;47.064;15.448;2023-12-14T03:42:28;16.63;;;10.40;;
80315;SDS011;71201;47.064;15.448;2023-12-14T03:44:54;17.17;;;11.13;;
80315;SDS011;71201;47.064;15.448;2023-12-14T03:47:19;17.40;;;10.33;;
80315;SDS011;71201;47.064;15.448;2023-12-14T03:49:44;14.30;;;9.90;;
80315;SDS011;71201;47.064;15.448;2023-12-14T03:52:09;20.17;;;12.50;;
80315;SDS011;71201;47.064;15.448;2023-12-14T03:54:35;19.77;;;12.00;;
80315;SDS011;71201;47.064;15.448;2023-12-14T03:57:00;22.23;;;13.10;;
80315;SDS011;71201;47.064;15.448;2023-12-14T03:59:25;20.57;;;12.63;;
80315;SDS011;71201;47.064;15.448;2023-12-14T04:01:50;16.77;;;11.87;;
80315;SDS011;71201;47.064;15.448;2023-12-14T04:04:16;19.13;;;12.03;;
80315;SDS011;71201;47.064;15.448;2023-12-14T04:06:41;20.50;;;13.43;;
80315;SDS011;71201;47.064;15.448;2023-12-14T04:09:06;18.63;;;12.37;;
80315;SDS011;71201;47.064;15.448;2023-12-14T04:11:31;25.23;;;14.63;;
80315;SDS011;71201;47.064;15.448;2023-12-14T04:13:57;22.50;;;14.17;;
80315;SDS011;71201;47.064;15.448;2023-12-14T04:16:22;22.10;;;13.20;;
80315;SDS011;71201;47.064;15.448;2023-12-14T04:18:47;20.40;;;12.82;;
80315;SDS011;71201;47.064;15.448;2023-12-14T04:21:13;20.65;;;13.18;;
80315;SDS011;71201;47.064;15.448;2023-12-14T04:23:38;19.10;;;13.07;;
80315;SDS011;71201;47.064;15.448;2023-12-14T04:26:03;19.40;;;12.53;;
80315;SDS011;71201;47.064;15.448;2023-12-14T04:28:28;22.13;;;13.95;;
80315;SDS011;71201;47.064;15.448;2023-12-14T04:30:54;20.57;;;12.67;;
80315;SDS011;71201;47.064;15.448;2023-12-14T04:33:19;22.23;;;13.50;;
80315;SDS011;71201;47.064;15.448;2023-12-14T04:35:44;25.40;;;14.60;;
80315;SDS011;71201;47.064;15.448;2023-12-14T04:38:10;20.50;;;12.97;;
80315;SDS011;71201;47.064;15.448;2023-12-14T04:40:35;24.08;;;14.10;;
80315;SDS011;71201;47.064;15.448;2023-12-14T04:43:00;19.87;;;13.87;;
80315;SDS011;71201;47.064;15.448;2023-12-14T04:45:25;23.70;;;15.73;;
80315;SDS011;71201;47.064;15.448;2023-12-14T04:47:51;21.10;;;13.90;;
80315;SDS011;71201;47.064;15.448;2023-12-14T04:50:16;22.13;;;14.23;;
80315;SDS011;71201;47.064;15.448;2023-12-14T04:52:41;24.10;;;14.57;;
80315;SDS011;71201;47.064;15.448;2023-12-14T04:55:07;23.13;;;15.32;;
80315;SDS011;71201;47.064;15.448;2023-12-14T04:57:33;24.20;;;15.98;;
80315;SDS011;71201;47.064;15.448;2023-12-14T04:59:58;21.92;;;14.57;;
80315;SDS011;71201;47.064;15.448;2023-12-14T05:02:23;22.13;;;14.33;;
80315;SDS011;71201;47.064;15.448;2023-12-14T05:04:49;20.60;;;13.60;;
80315;SDS011;71201;47.064;15.448;2023-12-14T05:07:14;21.07;;;14.77;;
80315;SDS011;71201;47.064;15.448;2023-12-14T05:09:40;19.48;;;13.38;;
80315;SDS011;71201;47.064;15.448;2023-12-14T05:12:05;27.50;;;17.83;;
80315;SDS011;71201;47.064;15.448;2023-12-14T05:14:30;24.38;;;15.13;;
80315;SDS011;71201;47.064;15.448;2023-12-14T05:16:56;24.08;;;15.95;;
80315;SDS011;71201;47.064;15.448;2023-12-14T05:19:21;22.17;;;13.97;;
80315;SDS011;71201;47.064;15.448;2023-12-14T05:21:47;22.30;;;14.65;;
80315;SDS011;71201;47.064;15.448;2023-12-14T05:24:12;23.85;;;14.13;;
80315;SDS011;71201;47.064;15.448;2023-12-14T05:26:38;22.10;;;15.07;;
80315;SDS011;71201;47.064;15.448;2023-12-14T05:29:03;26.30;;;14.43;;
80315;SDS011;71201;47.064;15.448;2023-12-14T05:31:28;23.63;;;13.75;;
80315;SDS011;71201;47.064;15.448;2023-12-14T05:33:53;23.75;;;15.13;;
80315;SDS011;71201;47.064;15.448;2023-12-14T05:36:19;23.98;;;14.20;;
80315;SDS011;71201;47.064;15.448;2023-12-14T05:38:44;20.90;;;14.47;;
80315;SDS011;71201;47.064;15.448;2023-12-14T05:41:09;25.60;;;14.10;;
80315;SDS011;71201;47.064;15.448;2023-12-14T05:43:35;21.83;;;13.38;;
80315;SDS011;71201;47.064;15.448;2023-12-14T05:46:01;23.58;;;14.30;;
80315;SDS011;71201;47.064;15.448;2023-12-14T05:48:26;20.25;;;12.65;;
80315;SDS011;71201;47.064;15.448;2023-12-14T05:50:53;21.10;;;12.60;;
80315;SDS011;71201;47.064;15.448;2023-12-14T05:53:18;23.23;;;13.30;;
80315;SDS011;71201;47.064;15.448;2023-12-14T05:55:43;20.23;;;13.27;;
80315;SDS011;71201;47.064;15.448;2023-12-14T05:58:09;19.60;;;12.45;;
80315;SDS011;71201;47.064;15.448;2023-12-14T06:00:34;17.33;;;10.77;;
80315;SDS011;71201;47.064;15.448;2023-12-14T06:03:00;15.07;;;9.80;;
80315;SDS011;71201;47.064;15.448;2023-12-14T06:05:26;15.77;;;9.15;;
80315;SDS011;71201;47.064;15.448;2023-12-14T06:07:51;14.87;;;8.47;;
80315;SDS011;71201;47.064;15.448;2023-12-14T06:10:16;14.00;;;8.73;;
80315;SDS011;71201;47.064;15.448;2023-12-14T06:12:42;13.10;;;8.27;;
80315;SDS011;71201;47.064;15.448;2023-12-14T06:15:07;13.43;;;9.05;;
80315;SDS011;71201;47.064;15.448;2023-12-14T06:17:32;13.00;;;8.90;;
80315;SDS011;71201;47.064;15.448;2023-12-14T06:19:58;16.73;;;9.00;;
80315;SDS011;71201;47.064;15.448;2023-12-14T06:22:24;14.98;;;8.98;;
80315;SDS011;71201;47.064;15.448;2023-12-14T06:24:49;13.33;;;9.27;;
80315;SDS011;71201;47.064;15.448;2023-12-14T06:27:14;15.60;;;10.23;;
80315;SDS011;71201;47.064;15.448;2023-12-14T06:29:40;15.27;;;9.15;;
80315;SDS011;71201;47.064;15.448;2023-12-14T06:32:05;12.70;;;9.03;;
80315;SDS011;71201;47.064;15.448;2023-12-14T06:34:31;13.48;;;9.52;;
80315;SDS011;71201;47.064;15.448;2023-12-14T06:36:56;16.40;;;8.97;;
80315;SDS011;71201;47.064;15.448;2023-12-14T06:39:23;15.27;;;10.15;;
80315;SDS011;71201;47.064;15.448;2023-12-14T06:41:48;16.27;;;10.13;;
80315;SDS011;71201;47.064;15.448;2023-12-14T06:44:16;18.90;;;10.18;;
80315;SDS011;71201;47.064;15.448;2023-12-14T06:46:42;20.75;;;10.77;;
80315;SDS011;71201;47.064;15.448;2023-12-14T06:49:07;16.17;;;10.07;;
80315;SDS011;71201;47.064;15.448;2023-12-14T06:51:32;16.53;;;10.57;;
80315;SDS011;71201;47.064;15.448;2023-12-14T06:53:58;12.70;;;8.00;;
80315;SDS011;71201;47.064;15.448;2023-12-14T06:56:23;14.88;;;9.60;;
80315;SDS011;71201;47.064;15.448;2023-12-14T06:58:48;17.50;;;10.00;;
80315;SDS011;71201;47.064;15.448;2023-12-14T07:01:14;15.50;;;10.35;;
80315;SDS011;71201;47.064;15.448;2023-12-14T07:03:40;16.92;;;9.88;;
80315;SDS011;71201;47.064;15.448;2023-12-14T07:06:06;16.10;;;9.43;;
80315;SDS011;71201;47.064;15.448;2023-12-14T07:08:32;14.93;;;9.18;;
80315;SDS011;71201;47.064;15.448;2023-12-14T07:10:57;16.83;;;10.27;;
80315;SDS011;71201;47.064;15.448;2023-12-14T07:13:22;12.80;;;9.18;;
80315;SDS011;71201;47.064;15.448;2023-12-14T07:15:48;15.43;;;10.05;;
80315;SDS011;71201;47.064;15.448;2023-12-14T07:18:13;17.95;;;11.10;;
80315;SDS011;71201;47.064;15.448;2023-12-14T07:20:38;15.43;;;10.60;;
80315;SDS011;71201;47.064;15.448;2023-12-14T07:23:03;19.60;;;11.03;;
80315;SDS011;71201;47.064;15.448;2023-12-14T07:25:29;18.47;;;11.00;;
80315;SDS011;71201;47.064;15.448;2023-12-14T07:27:54;19.30;;;10.87;;
80315;SDS011;71201;47.064;15.448;2023-12-14T07:30:19;18.53;;;10.73;;
80315;SDS011;71201;47.064;15.448;2023-12-14T07:32:44;18.02;;;11.10;;
80315;SDS011;71201;47.064;15.448;2023-12-14T07:35:10;16.27;;;11.13;;
80315;SDS011;71201;47.064;15.448;2023-12-14T07:37:35;20.20;;;11.20;;
80315;SDS011;71201;47.064;15.448;2023-12-14T07:40:00;17.50;;;11.60;;
80315;SDS011;71201;47.064;15.448;2023-12-14T07:42:26;18.10;;;11.25;;
80315;SDS011;71201;47.064;15.448;2023-12-14T07:44:51;14.73;;;10.00;;
80315;SDS011;71201;47.064;15.448;2023-12-14T07:47:17;14.38;;;8.90;;
80315;SDS011;71201;47.064;15.448;2023-12-14T07:49:42;16.38;;;11.18;;
80315;SDS011;71201;47.064;15.448;2023-12-14T07:52:07;19.33;;;10.73;;
80315;SDS011;71201;47.064;15.448;2023-12-14T07:54:33;14.20;;;10.02;;
80315;SDS011;71201;47.064;15.448;2023-12-14T07:56:58;18.27;;;11.17;;
80315;SDS011;71201;47.064;15.448;2023-12-14T07:59:23;21.27;;;11.10;;
80315;SDS011;71201;47.064;15.448;2023-12-14T08:01:48;18.67;;;11.98;;
80315;SDS011;71201;47.064;15.448;2023-12-14T08:04:14;19.27;;;12.33;;
80315;SDS011;71201;47.064;15.448;2023-12-14T08:06:39;19.30;;;11.93;;
80315;SDS011;71201;47.064;15.448;2023-12-14T08:09:05;18.13;;;11.90;;
80315;SDS011;71201;47.064;15.448;2023-12-14T08:11:30;23.45;;;12.68;;
80315;SDS011;71201;47.064;15.448;2023-12-14T08:13:56;20.40;;;11.40;;
80315;SDS011;71201;47.064;15.448;2023-12-14T08:16:21;17.38;;;11.80;;
80315;SDS011;71201;47.064;15.448;2023-12-14T08:18:46;18.60;;;12.20;;
80315;SDS011;71201;47.064;15.448;2023-12-14T08:21:13;18.83;;;11.68;;
80315;SDS011;71201;47.064;15.448;2023-12-14T08:23:39;22.48;;;12.80;;
80315;SDS011;71201;47.064;15.448;2023-12-14T08:26:04;24.02;;;13.07;;
80315;SDS011;71201;47.064;15.448;2023-12-14T08:28:29;18.27;;;11.50;;
80315;SDS011;71201;47.064;15.448;2023-12-14T08:30:55;18.20;;;11.82;;
80315;SDS011;71201;47.064;15.448;2023-12-14T08:33:22;19.13;;;11.93;;
80315;SDS011;71201;47.064;15.448;2023-12-14T08:35:48;15.68;;;12.02;;
80315;SDS011;71201;47.064;15.448;2023-12-14T08:38:14;22.58;;;13.25;;
80315;SDS011;71201;47.064;15.448;2023-12-14T08:40:39;21.80;;;13.23;;
80315;SDS011;71201;47.064;15.448;2023-12-14T08:43:04;23.08;;;13.80;;
80315;SDS011;71201;47.064;15.448;2023-12-14T08:45:29;20.08;;;12.68;;
80315;SDS011;71201;47.064;15.448;2023-12-14T08:47:55;21.10;;;12.52;;
80315;SDS011;71201;47.064;15.448;2023-12-14T08:50:20;20.67;;;12.93;;
80315;SDS011;71201;47.064;15.448;2023-12-14T08:52:45;20.70;;;13.15;;
80315;SDS011;71201;47.064;15.448;2023-12-14T08:55:11;19.23;;;13.02;;
80315;SDS011;71201;47.064;15.448;2023-12-14T08:57:36;17.92;;;12.50;;
80315;SDS011;71201;47.064;15.448;2023-12-14T09:00:01;18.37;;;11.90;;
80315;SDS011;71201;47.064;15.448;2023-12-14T09:02:29;18.55;;;11.77;;
80315;SDS011;71201;47.064;15.448;2023-12-14T09:04:55;17.70;;;10.60;;
80315;SDS011;71201;47.064;15.448;2023-12-14T09:07:20;15.57;;;10.35;;
80315;SDS011;71201;47.064;15.448;2023-12-14T09:09:45;14.70;;;10.57;;
80315;SDS011;71201;47.064;15.448;2023-12-14T09:12:10;24.90;;;10.30;;
80315;SDS011;71201;47.064;15.448;2023-12-14T09:14:37;19.75;;;10.63;;
80315;SDS011;71201;47.064;15.448;2023-12-14T09:17:02;17.25;;;9.35;;
80315;SDS011;71201;47.064;15.448;2023-12-14T09:19:29;15.65;;;10.45;;
80315;SDS011;71201;47.064;15.448;2023-12-14T09:21:54;16.20;;;10.30;;
80315;SDS011;71201;47.064;15.448;2023-12-14T09:24:20;16.70;;;10.17;;
80315;SDS011;71201;47.064;15.448;2023-12-14T09:26:45;17.30;;;10.77;;
80315;SDS011;71201;47.064;15.448;2023-12-14T09:29:10;17.20;;;10.60;;
80315;SDS011;71201;47.064;15.448;2023-12-14T09:31:36;16.53;;;10.47;;
80315;SDS011;71201;47.064;15.448;2023-12-14T09:34:01;14.48;;;10.70;;
80315;SDS011;71201;47.064;15.448;2023-12-14T09:36:26;16.08;;;10.43;;
80315;SDS011;71201;47.064;15.448;2023-12-14T09:38:51;15.05;;;9.75;;
80315;SDS011;71201;47.064;15.448;2023-12-14T09:41:17;15.60;;;9.13;;
80315;SDS011;71201;47.064;15.448;2023-12-14T09:43:42;15.77;;;10.50;;
80315;SDS011;71201;47.064;15.448;2023-12-14T09:46:08;15.65;;;10.02;;
80315;SDS011;71201;47.064;15.448;2023-12-14T09:48:34;17.55;;;10.13;;
80315;SDS011;71201;47.064;15.448;2023-12-14T09:50:59;16.30;;;10.60;;
80315;SDS011;71201;47.064;15.448;2023-12-14T09:53:26;15.40;;;9.73;;
80315;SDS011;71201;47.064;15.448;2023-12-14T09:55:52;15.67;;;9.43;;
80315;SDS011;71201;47.064;15.448;2023-12-14T09:58:17;17.73;;;9.82;;
80315;SDS011;71201;47.064;15.448;2023-12-14T10:00:42;15.63;;;9.57;;
80315;SDS011;71201;47.064;15.448;2023-12-14T10:03:17;15.68;;;9.30;;
80315;SDS011;71201;47.064;15.448;2023-12-14T10:05:43;15.90;;;9.23;;
80315;SDS011;71201;47.064;15.448;2023-12-14T10:08:08;15.98;;;10.02;;
80315;SDS011;71201;47.064;15.448;2023-12-14T10:10:33;14.50;;;8.87;;
80315;SDS011;71201;47.064;15.448;2023-12-14T10:12:59;13.40;;;9.13;;
80315;SDS011;71201;47.064;15.448;2023-12-14T10:15:25;15.60;;;9.23;;
80315;SDS011;71201;47.064;15.448;2023-12-14T10:17:51;15.05;;;9.73;;
80315;SDS011;71201;47.064;15.448;2023-12-14T10:20:19;16.08;;;9.05;;
80315;SDS011;71201;47.064;15.448;2023-12-14T10:22:47;13.77;;;9.10;;
80315;SDS011;71201;47.064;15.448;2023-12-14T10:25:12;16.95;;;9.93;;
80315;SDS011;71201;47.064;15.448;2023-12-14T10:27:37;17.57;;;10.37;;
80315;SDS011;71201;47.064;15.448;2023-12-14T10:30:05;14.82;;;8.98;;
80315;SDS011;71201;47.064;15.448;2023-12-14T10:32:30;14.65;;;8.45;;
80315;SDS011;71201;47.064;15.448;2023-12-14T10:34:56;13.50;;;8.98;;
80315;SDS011;71201;47.064;15.448;2023-12-14T10:37:21;19.47;;;9.80;;
80315;SDS011;71201;47.064;15.448;2023-12-14T10:39:46;14.10;;;8.57;;
80315;SDS011;71201;47.064;15.448;2023-12-14T10:42:13;13.52;;;8.10;;
80315;SDS011;71201;47.064;15.448;2023-12-14T10:44:41;14.98;;;8.30;;
80315;SDS011;71201;47.064;15.448;2023-12-14T10:47:07;12.43;;;8.40;;
80315;SDS011;71201;47.064;15.448;2023-12-14T10:49:32;10.68;;;7.60;;
80315;SDS011;71201;47.064;15.448;2023-12-14T10:52:00;12.02;;;7.25;;
80315;SDS011;71201;47.064;15.448;2023-12-14T10:54:27;10.77;;;7.30;;
80315;SDS011;71201;47.064;15.448;2023-12-14T10:56:56;10.50;;;7.15;;
80315;SDS011;71201;47.064;15.448;2023-12-14T10:59:23;12.32;;;7.20;;
80315;SDS011;71201;47.064;15.448;2023-12-14T11:01:52;10.15;;;6.82;;
80315;SDS011;71201;47.064;15.448;2023-12-14T11:04:18;12.18;;;7.07;;
80315;SDS011;71201;47.064;15.448;2023-12-14T11:06:44;15.80;;;7.13;;
80315;SDS011;71201;47.064;15.448;2023-12-14T11:09:13;16.23;;;7.45;;
80315;SDS011;71201;47.064;15.448;2023-12-14T11:14:18;14.63;;;7.50;;
80315;SDS011;71201;47.064;15.448;2023-12-14T11:16:44;11.60;;;7.35;;
80315;SDS011;71201;47.064;15.448;2023-12-14T11:24:34;12.20;;;6.97;;
80315;SDS011;71201;47.064;15.448;2023-12-14T11:27:01;11.18;;;6.70;;
80315;SDS011;71201;47.064;15.448;2023-12-14T11:29:28;9.68;;;6.97;;
80315;SDS011;71201;47.064;15.448;2023-12-14T11:31:54;10.40;;;6.68;;
80315;SDS011;71201;47.064;15.448;2023-12-14T11:34:19;10.40;;;6.93;;
80315;SDS011;71201;47.064;15.448;2023-12-14T11:46:25;14.63;;;6.38;;
80315;SDS011;71201;47.064;15.448;2023-12-14T11:53:39;12.05;;;7.15;;
80315;SDS011;71201;47.064;15.448;2023-12-14T12:03:12;9.77;;;6.22;;
80315;SDS011;71201;47.064;15.448;2023-12-14T12:10:41;8.88;;;6.38;;
80315;SDS011;71201;47.064;15.448;2023-12-14T12:29:10;4.13;;;0.90;;
80315;SDS011;71201;47.064;15.448;2023-12-14T12:38:48;8.10;;;1.38;;
80315;SDS011;71201;47.064;15.448;2023-12-14T12:48:32;3.50;;;1.63;;
80315;SDS011;71201;47.064;15.448;2023-12-14T12:53:23;2.90;;;1.27;;
80315;SDS011;71201;47.064;15.448;2023-12-14T12:57:28;2.33;;;1.10;;
80315;SDS011;71201;47.064;15.448;2023-12-14T13:07:19;6.95;;;1.23;;
80315;SDS011;71201;47.064;15.448;2023-12-14T13:12:01;2.38;;;0.60;;
80315;SDS011;71201;47.064;15.448;2023-12-14T13:21:45;3.38;;;0.50;;
80315;SDS011;71201;47.064;15.448;2023-12-14T13:33:30;9.55;;;4.90;;
80315;SDS011;71201;47.064;15.448;2023-12-14T13:40:40;8.98;;;5.20;;
80315;SDS011;71201;47.064;15.448;2023-12-14T13:50:26;14.25;;;5.78;;
80315;SDS011;71201;47.064;15.448;2023-12-14T13:57:44;11.40;;;6.28;;
80315;SDS011;71201;47.064;15.448;2023-12-14T14:02:07;11.55;;;6.40;;
80315;SDS011;71201;47.064;15.448;2023-12-14T14:11:59;13.98;;;7.05;;
80315;SDS011;71201;47.064;15.448;2023-12-14T14:33:30;7.57;;;3.83;;
80315;SDS011;71201;47.064;15.448;2023-12-14T14:38:23;7.05;;;3.38;;
80315;SDS011;71201;47.064;15.448;2023-12-14T14:52:15;8.93;;;5.18;;
80315;SDS011;71201;47.064;15.448;2023-12-14T15:09:00;11.32;;;6.07;;
80315;SDS011;71201;47.064;15.448;2023-12-14T15:13:35;11.00;;;6.05;;
80315;SDS011;71201;47.064;15.448;2023-12-14T15:28:37;10.32;;;6.65;;
80315;SDS011;71201;47.064;15.448;2023-12-14T15:31:09;13.98;;;6.60;;
80315;SDS011;71201;47.064;15.448;2023-12-14T15:41:01;9.93;;;5.70;;
80315;SDS011;71201;47.064;15.448;2023-12-14T15:56:57;12.05;;;7.88;;
80315;SDS011;71201;47.064;15.448;2023-12-14T16:06:59;13.25;;;6.80;;
80315;SDS011;71201;47.064;15.448;2023-12-14T16:21:07;12.05;;;6.00;;
80315;SDS011;71201;47.064;15.448;2023-12-14T16:23:39;11.77;;;7.60;;
80315;SDS011;71201;47.064;15.448;2023-12-14T16:39:29;11.13;;;7.65;;
80315;SDS011;71201;47.064;15.448;2023-12-14T16:42:01;11.15;;;7.28;;
80315;SDS011;71201;47.064;15.448;2023-12-14T16:49:01;10.60;;;7.00;;
80315;SDS011;71201;47.064;15.448;2023-12-14T17:10:10;12.98;;;6.65;;
80315;SDS011;71201;47.064;15.448;2023-12-14T17:14:42;12.35;;;7.22;;
80315;SDS011;71201;47.064;15.448;2023-12-14T17:33:50;10.10;;;6.55;;
80315;SDS011;71201;47.064;15.448;2023-12-14T17:45:09;13.45;;;7.22;;
80315;SDS011;71201;47.064;15.448;2023-12-14T17:56:28;13.25;;;5.40;;
80315;SDS011;71201;47.064;15.448;2023-12-14T18:10:41;9.52;;;5.38;;
80315;SDS011;71201;47.064;15.448;2023-12-14T18:46:40;10.20;;;5.60;;
80315;SDS011;71201;47.064;15.448;2023-12-14T19:03:38;19.00;;;7.50;;
80315;SDS011;71201;47.064;15.448;2023-12-14T19:22:16;14.80;;;7.53;;
80315;SDS011;71201;47.064;15.448;2023-12-14T19:29:15;11.00;;;5.35;;
80315;SDS011;71201;47.064;15.448;2023-12-14T19:36:34;16.13;;;7.68;;
80315;SDS011;71201;47.064;15.448;2023-12-14T19:46:25;10.32;;;6.53;;
80315;SDS011;71201;47.064;15.448;2023-12-14T19:50:45;11.50;;;4.40;;
80315;SDS011;71201;47.064;15.448;2023-12-14T20:07:57;10.45;;;5.10;;
80315;SDS011;71201;47.064;15.448;2023-12-14T20:12:23;12.05;;;6.25;;
80315;SDS011;71201;47.064;15.448;2023-12-14T20:29:35;12.23;;;5.32;;
80315;SDS011;71201;47.064;15.448;2023-12-14T20:36:35;9.13;;;4.93;;
80315;SDS011;71201;47.064;15.448;2023-12-14T20:48:29;11.15;;;5.88;;
80315;SDS011;71201;47.064;15.448;2023-12-14T20:58:18;9.77;;;5.88;;
80315;SDS011;71201;47.064;15.448;2023-12-14T21:24:25;12.43;;;4.63;;
80315;SDS011;71201;47.064;15.448;2023-12-14T21:40:21;5.88;;;3.20;;
80315;SDS011;71201;47.064;15.448;2023-12-14T21:47:06;10.95;;;4.70;;
80315;SDS011;71201;47.064;15.448;2023-12-14T22:12:31;7.20;;;3.30;;
80315;SDS011;71201;47.064;15.448;2023-12-14T22:22:29;9.13;;;3.38;;
80315;SDS011;71201;47.064;15.448;2023-12-14T22:29:38;8.43;;;4.47;;
80315;SDS011;71201;47.064;15.448;2023-12-14T22:36:46;7.10;;;3.17;;
80315;SDS011;71201;47.064;15.448;2023-12-14T22:43:57;6.43;;;2.80;;
80315;SDS011;71201;47.064;15.448;2023-12-14T22:55:43;5.63;;;1.80;;
80315;SDS011;71201;47.064;15.448;2023-12-14T23:03:02;4.15;;;1.80;;
80315;SDS011;71201;47.064;15.448;2023-12-14T23:17:11;4.03;;;2.00;;
80315;SDS011;71201;47.064;15.448;2023-12-14T23:31:30;7.90;;;2.85;;
80315;SDS011;71201;47.064;15.448;2023-12-14T23:41:10;6.28;;;2.22;;
